sensor_id;sensor_type;location;lat;lon;timestamp;pressure;altitude;pressure_sealevel;temperature;humidity
7524;BME280;3803;51.666;7.630;2023-07-16T00:00:10;100328.22;;;20.48;60.28
7524;BME280;3803;51.666;7.630;2023-07-16T00:00:31;100336.91;;;20.56;60.21
7524;BME280;3803;51.666;7.630;2023-07-16T00:00:53;100331.66;;;20.53;60.09
7524;BME280;3803;51.666;7.630;2023-07-16T00:01:13;100321.94;;;20.52;60.27
7524;BME280;3803;51.666;7.630;2023-07-16T00:01:34;100330.72;;;20.55;60.35
7524;BME280;3803;51.666;7.630;2023-07-16T00:01:54;100321.09;;;20.51;60.10
7524;BME280;3803;51.666;7.630;2023-07-16T00:02:15;100327.22;;;20.53;60.18
7524;BME280;3803;51.666;7.630;2023-07-16T00:02:37;100332.41;;;20.60;60.17
7524;BME280;3803;51.666;7.630;2023-07-16T00:02:58;100334.22;;;20.58;60.14
7524;BME280;3803;51.666;7.630;2023-07-16T00:03:19;100332.44;;;20.58;60.33
7524;BME280;3803;51.666;7.630;2023-07-16T00:03:40;100320.19;;;20.52;60.13
7524;BME280;3803;51.666;7.630;2023-07-16T00:04:00;100333.34;;;20.57;60.19
7524;BME280;3803;51.666;7.630;2023-07-16T00:04:21;100338.56;;;20.60;60.18
7524;BME280;3803;51.666;7.630;2023-07-16T00:04:42;100337.72;;;20.58;60.21
7524;BME280;3803;51.666;7.630;2023-07-16T00:05:03;100342.94;;;20.63;60.09
7524;BME280;3803;51.666;7.630;2023-07-16T00:05:24;100332.47;;;20.57;60.23
7524;BME280;3803;51.666;7.630;2023-07-16T00:05:44;100339.53;;;20.58;60.34
7524;BME280;3803;51.666;7.630;2023-07-16T00:06:05;100336.81;;;20.59;60.17
7524;BME280;3803;51.666;7.630;2023-07-16T00:06:26;100336.88;;;20.58;60.10
7524;BME280;3803;51.666;7.630;2023-07-16T00:06:46;100329.84;;;20.55;60.41
7524;BME280;3803;51.666;7.630;2023-07-16T00:07:07;100343.84;;;20.60;60.29
7524;BME280;3803;51.666;7.630;2023-07-16T00:07:28;100343.84;;;20.60;60.40
7524;BME280;3803;51.666;7.630;2023-07-16T00:07:48;100339.44;;;20.61;60.55
7524;BME280;3803;51.666;7.630;2023-07-16T00:08:09;100336.81;;;20.59;60.52
7524;BME280;3803;51.666;7.630;2023-07-16T00:08:29;100339.44;;;20.61;60.50
7524;BME280;3803;51.666;7.630;2023-07-16T00:08:50;100325.56;;;20.49;60.60
7524;BME280;3803;51.666;7.630;2023-07-16T00:09:11;100332.72;;;20.44;60.68
7524;BME280;3803;51.666;7.630;2023-07-16T00:09:31;100325.78;;;20.37;60.83
7524;BME280;3803;51.666;7.630;2023-07-16T00:09:52;100322.31;;;20.35;61.12
7524;BME280;3803;51.666;7.630;2023-07-16T00:10:13;100321.41;;;20.34;61.05
7524;BME280;3803;51.666;7.630;2023-07-16T00:10:37;100327.59;;;20.35;61.33
7524;BME280;3803;51.666;7.630;2023-07-16T00:10:58;100320.56;;;20.34;61.19
7524;BME280;3803;51.666;7.630;2023-07-16T00:11:18;100321.31;;;20.40;60.72
7524;BME280;3803;51.666;7.630;2023-07-16T00:11:39;100319.44;;;20.46;60.85
7524;BME280;3803;51.666;7.630;2023-07-16T00:12:00;100328.22;;;20.48;60.77
7524;BME280;3803;51.666;7.630;2023-07-16T00:12:20;100325.59;;;20.46;60.81
7524;BME280;3803;51.666;7.630;2023-07-16T00:12:41;100333.44;;;20.52;60.76
7524;BME280;3803;51.666;7.630;2023-07-16T00:13:04;100341.38;;;20.52;60.79
7524;BME280;3803;51.666;7.630;2023-07-16T00:13:25;100329.09;;;20.48;60.67
7524;BME280;3803;51.666;7.630;2023-07-16T00:13:46;100322.97;;;20.45;60.66
7524;BME280;3803;51.666;7.630;2023-07-16T00:14:10;100333.56;;;20.46;60.85
7524;BME280;3803;51.666;7.630;2023-07-16T00:14:32;100332.72;;;20.44;60.80
7524;BME280;3803;51.666;7.630;2023-07-16T00:14:52;100335.38;;;20.43;60.68
7524;BME280;3803;51.666;7.630;2023-07-16T00:15:13;100345.88;;;20.49;60.83
7524;BME280;3803;51.666;7.630;2023-07-16T00:15:34;100333.63;;;20.43;60.80
7524;BME280;3803;51.666;7.630;2023-07-16T00:15:54;100335.38;;;20.43;60.60
7524;BME280;3803;51.666;7.630;2023-07-16T00:16:15;100331.00;;;20.40;60.92
7524;BME280;3803;51.666;7.630;2023-07-16T00:16:35;100325.72;;;20.40;61.04
7524;BME280;3803;51.666;7.630;2023-07-16T00:16:57;100344.13;;;20.48;60.84
7524;BME280;3803;51.666;7.630;2023-07-16T00:17:18;100341.47;;;20.49;60.83
7524;BME280;3803;51.666;7.630;2023-07-16T00:17:39;100338.03;;;20.44;60.94
7524;BME280;3803;51.666;7.630;2023-07-16T00:17:59;100330.97;;;20.43;61.10
7524;BME280;3803;51.666;7.630;2023-07-16T00:18:20;100345.94;;;20.46;60.96
7524;BME280;3803;51.666;7.630;2023-07-16T00:18:43;100330.25;;;20.35;60.96
7524;BME280;3803;51.666;7.630;2023-07-16T00:19:04;100323.16;;;20.35;61.06
7524;BME280;3803;51.666;7.630;2023-07-16T00:19:25;100331.97;;;20.37;61.17
7524;BME280;3803;51.666;7.630;2023-07-16T00:19:46;100336.38;;;20.38;61.27
7524;BME280;3803;51.666;7.630;2023-07-16T00:20:07;100326.75;;;20.33;61.16
7524;BME280;3803;51.666;7.630;2023-07-16T00:20:28;100336.47;;;20.34;61.36
7524;BME280;3803;51.666;7.630;2023-07-16T00:20:48;100329.56;;;20.25;61.36
7524;BME280;3803;51.666;7.630;2023-07-16T00:21:09;100334.69;;;20.33;61.39
7524;BME280;3803;51.666;7.630;2023-07-16T00:21:30;100340.91;;;20.32;61.42
7524;BME280;3803;51.666;7.630;2023-07-16T00:21:50;100343.59;;;20.30;61.69
7524;BME280;3803;51.666;7.630;2023-07-16T00:22:11;100339.22;;;20.27;61.84
7524;BME280;3803;51.666;7.630;2023-07-16T00:22:32;100343.72;;;20.22;61.60
7524;BME280;3803;51.666;7.630;2023-07-16T00:22:54;100350.78;;;20.23;61.81
7524;BME280;3803;51.666;7.630;2023-07-16T00:23:14;100336.75;;;20.18;61.92
7524;BME280;3803;51.666;7.630;2023-07-16T00:23:35;100342.06;;;20.17;62.07
7524;BME280;3803;51.666;7.630;2023-07-16T00:23:56;100357.88;;;20.21;62.18
7524;BME280;3803;51.666;7.630;2023-07-16T00:24:17;100342.09;;;20.15;61.98
7524;BME280;3803;51.666;7.630;2023-07-16T00:24:37;100341.25;;;20.14;62.00
7524;BME280;3803;51.666;7.630;2023-07-16T00:24:58;100333.41;;;20.07;62.12
7524;BME280;3803;51.666;7.630;2023-07-16T00:25:18;100351.84;;;20.13;62.30
7524;BME280;3803;51.666;7.630;2023-07-16T00:25:39;100353.69;;;20.09;62.32
7524;BME280;3803;51.666;7.630;2023-07-16T00:26:00;100348.38;;;20.09;62.43
7524;BME280;3803;51.666;7.630;2023-07-16T00:26:20;100351.88;;;20.11;62.37
7524;BME280;3803;51.666;7.630;2023-07-16T00:26:41;100347.50;;;20.09;62.44
7524;BME280;3803;51.666;7.630;2023-07-16T00:27:02;100356.31;;;20.11;62.48
7524;BME280;3803;51.666;7.630;2023-07-16T00:27:25;100342.34;;;20.03;62.52
7524;BME280;3803;51.666;7.630;2023-07-16T00:27:46;100346.72;;;20.04;62.36
7524;BME280;3803;51.666;7.630;2023-07-16T00:28:07;100349.38;;;20.04;62.43
7524;BME280;3803;51.666;7.630;2023-07-16T00:28:28;100354.63;;;20.07;62.55
7524;BME280;3803;51.666;7.630;2023-07-16T00:28:48;100351.06;;;20.08;62.51
7524;BME280;3803;51.666;7.630;2023-07-16T00:29:09;100354.63;;;20.07;62.69
7524;BME280;3803;51.666;7.630;2023-07-16T00:29:29;100348.53;;;20.02;62.81
7524;BME280;3803;51.666;7.630;2023-07-16T00:29:50;100360.75;;;20.09;62.77
7524;BME280;3803;51.666;7.630;2023-07-16T00:30:12;100354.69;;;20.04;62.77
7524;BME280;3803;51.666;7.630;2023-07-16T00:30:32;100360.78;;;20.07;62.75
7524;BME280;3803;51.666;7.630;2023-07-16T00:30:53;100348.53;;;20.02;63.04
7524;BME280;3803;51.666;7.630;2023-07-16T00:31:14;100363.63;;;19.96;62.92
7524;BME280;3803;51.666;7.630;2023-07-16T00:31:35;100357.53;;;19.91;63.22
7524;BME280;3803;51.666;7.630;2023-07-16T00:31:55;100361.97;;;19.91;63.38
7524;BME280;3803;51.666;7.630;2023-07-16T00:32:16;100362.03;;;19.86;63.37
7524;BME280;3803;51.666;7.630;2023-07-16T00:32:37;100351.38;;;19.91;63.50
7524;BME280;3803;51.666;7.630;2023-07-16T00:32:57;100351.28;;;19.95;63.42
7524;BME280;3803;51.666;7.630;2023-07-16T00:33:18;100355.72;;;19.95;63.40
7524;BME280;3803;51.666;7.630;2023-07-16T00:33:39;100356.53;;;19.98;63.04
7524;BME280;3803;51.666;7.630;2023-07-16T00:33:59;100368.84;;;20.01;63.21
7524;BME280;3803;51.666;7.630;2023-07-16T00:34:20;100345.19;;;19.92;63.24
7524;BME280;3803;51.666;7.630;2023-07-16T00:34:40;100359.16;;;20.00;63.12
7524;BME280;3803;51.666;7.630;2023-07-16T00:35:03;100349.56;;;19.93;63.13
7524;BME280;3803;51.666;7.630;2023-07-16T00:35:23;100361.81;;;19.98;63.44
7524;BME280;3803;51.666;7.630;2023-07-16T00:35:48;100357.50;;;19.94;63.42
7524;BME280;3803;51.666;7.630;2023-07-16T00:36:11;100345.25;;;19.84;63.28
7524;BME280;3803;51.666;7.630;2023-07-16T00:36:32;100354.09;;;19.86;63.40
7524;BME280;3803;51.666;7.630;2023-07-16T00:36:54;100360.22;;;19.86;63.48
7524;BME280;3803;51.666;7.630;2023-07-16T00:37:14;100351.47;;;19.83;63.49
7524;BME280;3803;51.666;7.630;2023-07-16T00:37:35;100365.53;;;19.85;63.49
7524;BME280;3803;51.666;7.630;2023-07-16T00:37:56;100348.03;;;19.78;63.68
7524;BME280;3803;51.666;7.630;2023-07-16T00:38:17;100358.50;;;19.84;63.72
7524;BME280;3803;51.666;7.630;2023-07-16T00:38:38;100362.91;;;19.85;63.70
7524;BME280;3803;51.666;7.630;2023-07-16T00:39:03;100356.75;;;19.83;63.68
7524;BME280;3803;51.666;7.630;2023-07-16T00:39:24;100349.81;;;19.76;63.74
7524;BME280;3803;51.666;7.630;2023-07-16T00:39:45;100347.16;;;19.77;63.86
7524;BME280;3803;51.666;7.630;2023-07-16T00:40:06;100355.78;;;19.90;63.77
7524;BME280;3803;51.666;7.630;2023-07-16T00:40:27;100349.66;;;19.88;63.70
7524;BME280;3803;51.666;7.630;2023-07-16T00:40:48;100361.88;;;19.95;63.65
7524;BME280;3803;51.666;7.630;2023-07-16T00:41:09;100358.56;;;19.81;63.87
7524;BME280;3803;51.666;7.630;2023-07-16T00:41:30;100363.81;;;19.84;63.65
7524;BME280;3803;51.666;7.630;2023-07-16T00:41:51;100365.47;;;19.91;63.80
7524;BME280;3803;51.666;7.630;2023-07-16T00:42:11;100363.72;;;19.90;63.79
7524;BME280;3803;51.666;7.630;2023-07-16T00:42:32;100355.84;;;19.85;63.68
7524;BME280;3803;51.666;7.630;2023-07-16T00:42:53;100360.31;;;19.83;63.67
7524;BME280;3803;51.666;7.630;2023-07-16T00:43:13;100366.59;;;19.76;64.07
7524;BME280;3803;51.666;7.630;2023-07-16T00:43:34;100359.63;;;19.70;64.33
7524;BME280;3803;51.666;7.630;2023-07-16T00:43:55;100362.28;;;19.70;64.37
7524;BME280;3803;51.666;7.630;2023-07-16T00:44:16;100346.59;;;19.58;64.45
7524;BME280;3803;51.666;7.630;2023-07-16T00:44:36;100349.31;;;19.55;64.50
7524;BME280;3803;51.666;7.630;2023-07-16T00:44:57;100362.47;;;19.58;64.76
7524;BME280;3803;51.666;7.630;2023-07-16T00:45:18;100359.00;;;19.53;64.85
7524;BME280;3803;51.666;7.630;2023-07-16T00:45:40;100366.03;;;19.57;64.99
7524;BME280;3803;51.666;7.630;2023-07-16T00:46:02;100358.03;;;19.60;64.96
7524;BME280;3803;51.666;7.630;2023-07-16T00:46:24;100357.03;;;19.67;64.62
7524;BME280;3803;51.666;7.630;2023-07-16T00:46:45;100357.03;;;19.67;64.33
7524;BME280;3803;51.666;7.630;2023-07-16T00:47:06;100363.13;;;19.71;64.54
7524;BME280;3803;51.666;7.630;2023-07-16T00:47:27;100369.25;;;19.76;64.48
7524;BME280;3803;51.666;7.630;2023-07-16T00:47:47;100353.44;;;19.71;64.36
7524;BME280;3803;51.666;7.630;2023-07-16T00:48:08;100348.16;;;19.71;64.13
7524;BME280;3803;51.666;7.630;2023-07-16T00:48:29;100366.53;;;19.79;64.24
7524;BME280;3803;51.666;7.630;2023-07-16T00:48:50;100362.13;;;19.80;64.15
7524;BME280;3803;51.666;7.630;2023-07-16T00:49:11;100362.22;;;19.73;64.53
7524;BME280;3803;51.666;7.630;2023-07-16T00:49:32;100350.22;;;19.54;64.83
7524;BME280;3803;51.666;7.630;2023-07-16T00:49:53;100358.91;;;19.61;64.82
7524;BME280;3803;51.666;7.630;2023-07-16T00:50:14;100358.09;;;19.57;64.78
7524;BME280;3803;51.666;7.630;2023-07-16T00:50:36;100370.25;;;19.69;64.83
7524;BME280;3803;51.666;7.630;2023-07-16T00:51:01;100367.53;;;19.72;64.83
7524;BME280;3803;51.666;7.630;2023-07-16T00:51:24;100357.03;;;19.67;64.70
7524;BME280;3803;51.666;7.630;2023-07-16T00:51:45;100353.44;;;19.71;64.66
7524;BME280;3803;51.666;7.630;2023-07-16T00:52:11;100355.19;;;19.72;64.47
7524;BME280;3803;51.666;7.630;2023-07-16T00:53:35;100352.25;;;19.91;64.06
7524;BME280;3803;51.666;7.630;2023-07-16T00:53:56;100360.91;;;19.99;64.01
7524;BME280;3803;51.666;7.630;2023-07-16T00:54:17;100363.56;;;19.99;63.85
7524;BME280;3803;51.666;7.630;2023-07-16T00:54:38;100360.16;;;19.93;63.90
7524;BME280;3803;51.666;7.630;2023-07-16T00:54:58;100356.53;;;19.98;63.78
7524;BME280;3803;51.666;7.630;2023-07-16T00:55:19;100360.97;;;19.98;63.66
7524;BME280;3803;51.666;7.630;2023-07-16T00:55:40;100351.22;;;19.98;63.90
7524;BME280;3803;51.666;7.630;2023-07-16T00:56:01;100348.53;;;20.02;63.84
7524;BME280;3803;51.666;7.630;2023-07-16T00:56:22;100349.41;;;20.02;63.77
7524;BME280;3803;51.666;7.630;2023-07-16T00:56:42;100358.16;;;20.06;63.59
7524;BME280;3803;51.666;7.630;2023-07-16T00:57:04;100357.31;;;20.04;63.52
7524;BME280;3803;51.666;7.630;2023-07-16T00:57:24;100344.19;;;19.97;63.76
7524;BME280;3803;51.666;7.630;2023-07-16T00:57:46;100369.66;;;20.06;63.38
7524;BME280;3803;51.666;7.630;2023-07-16T00:58:08;100365.09;;;20.13;63.42
7524;BME280;3803;51.666;7.630;2023-07-16T00:58:28;100358.09;;;20.09;63.59
7524;BME280;3803;51.666;7.630;2023-07-16T00:58:49;100355.44;;;20.10;63.53
7524;BME280;3803;51.666;7.630;2023-07-16T00:59:09;100357.22;;;20.10;63.56
7524;BME280;3803;51.666;7.630;2023-07-16T00:59:30;100358.16;;;20.07;63.52
7524;BME280;3803;51.666;7.630;2023-07-16T00:59:52;100361.63;;;20.09;63.52
7524;BME280;3803;51.666;7.630;2023-07-16T01:00:13;100354.63;;;20.07;63.49
7524;BME280;3803;51.666;7.630;2023-07-16T01:00:35;100365.91;;;20.18;63.46
7524;BME280;3803;51.666;7.630;2023-07-16T01:00:56;100358.06;;;20.12;63.36
7524;BME280;3803;51.666;7.630;2023-07-16T01:01:18;100361.66;;;20.08;63.69
7524;BME280;3803;51.666;7.630;2023-07-16T01:01:39;100359.19;;;19.97;63.88
7524;BME280;3803;51.666;7.630;2023-07-16T01:02:00;100364.63;;;19.87;64.01
7524;BME280;3803;51.666;7.630;2023-07-16T01:02:21;100362.97;;;19.82;64.38
7524;BME280;3803;51.666;7.630;2023-07-16T01:02:42;100372.44;;;19.97;64.18
7524;BME280;3803;51.666;7.630;2023-07-16T01:03:04;100364.56;;;19.94;64.26
7524;BME280;3803;51.666;7.630;2023-07-16T01:03:25;100353.16;;;19.89;64.08
7524;BME280;3803;51.666;7.630;2023-07-16T01:03:46;100360.16;;;19.94;64.23
7524;BME280;3803;51.666;7.630;2023-07-16T01:04:07;100366.38;;;19.92;64.13
7524;BME280;3803;51.666;7.630;2023-07-16T01:04:28;100364.50;;;19.97;64.14
7524;BME280;3803;51.666;7.630;2023-07-16T01:04:49;100361.91;;;19.94;64.25
7524;BME280;3803;51.666;7.630;2023-07-16T01:05:09;100367.94;;;20.02;64.14
7524;BME280;3803;51.666;7.630;2023-07-16T01:05:35;100370.34;;;20.16;63.91
7524;BME280;3803;51.666;7.630;2023-07-16T01:06:21;100369.38;;;20.22;63.47
7524;BME280;3803;51.666;7.630;2023-07-16T01:06:49;100370.28;;;20.19;63.62
7524;BME280;3803;51.666;7.630;2023-07-16T01:07:13;100368.41;;;20.24;63.46
7524;BME280;3803;51.666;7.630;2023-07-16T01:07:37;100363.06;;;20.27;63.25
7524;BME280;3803;51.666;7.630;2023-07-16T01:08:02;100359.50;;;20.28;63.48
7524;BME280;3803;51.666;7.630;2023-07-16T01:08:35;100353.41;;;20.23;63.64
7524;BME280;3803;51.666;7.630;2023-07-16T01:09:02;100371.84;;;20.31;63.36
7524;BME280;3803;51.666;7.630;2023-07-16T01:09:24;100364.94;;;20.21;63.48
7524;BME280;3803;51.666;7.630;2023-07-16T01:09:45;100366.09;;;20.07;64.01
7524;BME280;3803;51.666;7.630;2023-07-16T01:10:07;100363.34;;;20.12;64.18
7524;BME280;3803;51.666;7.630;2023-07-16T01:10:28;100355.53;;;20.06;63.93
7524;BME280;3803;51.666;7.630;2023-07-16T01:10:49;100363.47;;;20.06;64.07
7524;BME280;3803;51.666;7.630;2023-07-16T01:11:10;100366.94;;;20.08;64.08
7524;BME280;3803;51.666;7.630;2023-07-16T01:11:33;100364.25;;;20.11;64.01
7524;BME280;3803;51.666;7.630;2023-07-16T01:11:57;100361.72;;;20.05;64.02
7524;BME280;3803;51.666;7.630;2023-07-16T01:12:19;100366.81;;;20.17;64.01
7524;BME280;3803;51.666;7.630;2023-07-16T01:12:41;100368.47;;;20.21;63.92
7524;BME280;3803;51.666;7.630;2023-07-16T01:13:02;100360.72;;;20.12;63.85
7524;BME280;3803;51.666;7.630;2023-07-16T01:13:23;100364.25;;;20.11;64.06
7524;BME280;3803;51.666;7.630;2023-07-16T01:13:45;100372.06;;;20.19;63.88
7524;BME280;3803;51.666;7.630;2023-07-16T01:14:06;100373.88;;;20.15;63.82
7524;BME280;3803;51.666;7.630;2023-07-16T01:14:29;100370.56;;;20.04;64.19
7524;BME280;3803;51.666;7.630;2023-07-16T01:14:51;100381.09;;;20.07;64.31
7524;BME280;3803;51.666;7.630;2023-07-16T01:15:12;100381.19;;;20.00;64.44
7524;BME280;3803;51.666;7.630;2023-07-16T01:15:33;100379.47;;;19.99;64.56
7524;BME280;3803;51.666;7.630;2023-07-16T01:15:54;100377.78;;;19.95;64.68
7524;BME280;3803;51.666;7.630;2023-07-16T01:16:19;100371.47;;;20.03;64.44
7524;BME280;3803;51.666;7.630;2023-07-16T01:16:41;100375.75;;;20.10;64.30
7524;BME280;3803;51.666;7.630;2023-07-16T01:17:03;100381.00;;;20.13;64.17
7524;BME280;3803;51.666;7.630;2023-07-16T01:17:24;100375.63;;;20.16;64.10
7524;BME280;3803;51.666;7.630;2023-07-16T01:17:45;100371.25;;;20.15;63.96
7524;BME280;3803;51.666;7.630;2023-07-16T01:18:06;100377.41;;;20.17;64.08
7524;BME280;3803;51.666;7.630;2023-07-16T01:18:26;100366.88;;;20.12;63.97
7524;BME280;3803;51.666;7.630;2023-07-16T01:18:47;100378.25;;;20.19;64.07
7524;BME280;3803;51.666;7.630;2023-07-16T01:19:09;100384.44;;;20.18;64.05
7524;BME280;3803;51.666;7.630;2023-07-16T01:19:30;100375.59;;;20.19;63.99
7524;BME280;3803;51.666;7.630;2023-07-16T01:19:50;100374.63;;;20.23;64.04
7524;BME280;3803;51.666;7.630;2023-07-16T01:20:11;100358.91;;;20.14;64.02
7524;BME280;3803;51.666;7.630;2023-07-16T01:20:32;100374.59;;;20.25;63.89
7524;BME280;3803;51.666;7.630;2023-07-16T01:20:53;100371.97;;;20.23;63.93
7524;BME280;3803;51.666;7.630;2023-07-16T01:21:14;100361.53;;;20.14;63.85
7524;BME280;3803;51.666;7.630;2023-07-16T01:22:03;100374.69;;;20.20;64.05
7524;BME280;3803;51.666;7.630;2023-07-16T01:22:33;100375.59;;;20.19;64.13
7524;BME280;3803;51.666;7.630;2023-07-16T01:23:13;100374.69;;;20.20;64.08
7524;BME280;3803;51.666;7.630;2023-07-16T01:23:50;100370.31;;;20.18;64.02
7524;BME280;3803;51.666;7.630;2023-07-16T01:25:12;100373.88;;;20.17;64.05
7524;BME280;3803;51.666;7.630;2023-07-16T01:27:27;100380.78;;;20.25;63.89
7524;BME280;3803;51.666;7.630;2023-07-16T01:28:05;100386.94;;;20.26;64.04
7524;BME280;3803;51.666;7.630;2023-07-16T01:28:50;100381.53;;;20.32;63.82
7524;BME280;3803;51.666;7.630;2023-07-16T01:29:36;100365.63;;;20.32;63.69
7524;BME280;3803;51.666;7.630;2023-07-16T01:30:08;100384.09;;;20.37;63.89
7524;BME280;3803;51.666;7.630;2023-07-16T01:30:32;100373.56;;;20.32;63.75
7524;BME280;3803;51.666;7.630;2023-07-16T01:30:55;100362.06;;;20.33;63.50
7524;BME280;3803;51.666;7.630;2023-07-16T01:31:19;100371.66;;;20.39;63.63
7524;BME280;3803;51.666;7.630;2023-07-16T01:31:41;100369.84;;;20.43;63.57
7524;BME280;3803;51.666;7.630;2023-07-16T01:32:05;100355.84;;;20.36;63.54
7524;BME280;3803;51.666;7.630;2023-07-16T01:32:27;100373.41;;;20.40;63.52
7524;BME280;3803;51.666;7.630;2023-07-16T01:32:49;100361.06;;;20.39;63.52
7524;BME280;3803;51.666;7.630;2023-07-16T01:33:12;100360.25;;;20.37;63.54
7524;BME280;3803;51.666;7.630;2023-07-16T01:33:34;100376.88;;;20.44;63.54
7524;BME280;3803;51.666;7.630;2023-07-16T01:33:55;100370.00;;;20.35;63.57
7524;BME280;3803;51.666;7.630;2023-07-16T01:34:16;100377.03;;;20.36;63.71
7524;BME280;3803;51.666;7.630;2023-07-16T01:34:38;100361.25;;;20.30;63.79
7524;BME280;3803;51.666;7.630;2023-07-16T01:35:00;100370.94;;;20.31;63.80
7524;BME280;3803;51.666;7.630;2023-07-16T01:35:23;100369.28;;;20.26;63.97
7524;BME280;3803;51.666;7.630;2023-07-16T01:35:45;100369.41;;;20.19;64.03
7524;BME280;3803;51.666;7.630;2023-07-16T01:36:06;100372.09;;;20.17;64.08
7524;BME280;3803;51.666;7.630;2023-07-16T01:36:28;100378.25;;;20.19;64.16
7524;BME280;3803;51.666;7.630;2023-07-16T01:36:49;100373.84;;;20.18;64.35
7524;BME280;3803;51.666;7.630;2023-07-16T01:37:10;100373.84;;;20.18;64.22
7524;BME280;3803;51.666;7.630;2023-07-16T01:37:32;100365.94;;;20.15;64.36
7524;BME280;3803;51.666;7.630;2023-07-16T01:37:53;100375.47;;;20.25;64.09
7524;BME280;3803;51.666;7.630;2023-07-16T01:38:14;100369.50;;;20.14;64.49
7524;BME280;3803;51.666;7.630;2023-07-16T01:38:36;100368.59;;;20.15;64.23
7524;BME280;3803;51.666;7.630;2023-07-16T01:38:57;100354.56;;;20.10;64.42
7524;BME280;3803;51.666;7.630;2023-07-16T01:39:18;100377.41;;;20.17;64.26
7524;BME280;3803;51.666;7.630;2023-07-16T01:39:39;100356.28;;;20.12;64.49
7524;BME280;3803;51.666;7.630;2023-07-16T01:40:01;100366.81;;;20.17;64.21
7524;BME280;3803;51.666;7.630;2023-07-16T01:40:22;100356.25;;;20.14;64.47
7524;BME280;3803;51.666;7.630;2023-07-16T01:40:44;100365.03;;;20.16;64.44
7524;BME280;3803;51.666;7.630;2023-07-16T01:41:05;100349.28;;;20.10;64.53
7524;BME280;3803;51.666;7.630;2023-07-16T01:41:26;100358.84;;;20.17;64.33
7524;BME280;3803;51.666;7.630;2023-07-16T01:41:47;100365.00;;;20.19;64.45
7524;BME280;3803;51.666;7.630;2023-07-16T01:42:07;100365.91;;;20.17;64.65
7524;BME280;3803;51.666;7.630;2023-07-16T01:42:28;100367.59;;;20.21;64.42
7524;BME280;3803;51.666;7.630;2023-07-16T01:42:49;100362.44;;;20.14;64.50
7524;BME280;3803;51.666;7.630;2023-07-16T01:43:09;100372.03;;;20.20;64.68
7524;BME280;3803;51.666;7.630;2023-07-16T01:43:30;100372.94;;;20.19;64.41
7524;BME280;3803;51.666;7.630;2023-07-16T01:43:50;100354.56;;;20.10;64.48
7524;BME280;3803;51.666;7.630;2023-07-16T01:44:11;100354.56;;;20.10;64.56
7524;BME280;3803;51.666;7.630;2023-07-16T01:44:32;100352.78;;;20.10;64.51
7524;BME280;3803;51.666;7.630;2023-07-16T01:44:52;100369.41;;;20.19;64.54
7524;BME280;3803;51.666;7.630;2023-07-16T01:45:13;100355.50;;;20.07;64.63
7524;BME280;3803;51.666;7.630;2023-07-16T01:45:34;100356.34;;;20.09;64.57
7524;BME280;3803;51.666;7.630;2023-07-16T01:45:54;100370.47;;;20.10;64.62
7524;BME280;3803;51.666;7.630;2023-07-16T01:46:15;100363.44;;;20.07;64.65
7524;BME280;3803;51.666;7.630;2023-07-16T01:46:36;100379.19;;;20.15;64.77
7524;BME280;3803;51.666;7.630;2023-07-16T01:47:13;100365.16;;;20.10;64.75
7524;BME280;3803;51.666;7.630;2023-07-16T01:48:20;100367.75;;;20.11;64.70
7524;BME280;3803;51.666;7.630;2023-07-16T01:48:44;100375.63;;;20.16;64.71
7524;BME280;3803;51.666;7.630;2023-07-16T01:49:05;100370.41;;;20.13;64.55
7524;BME280;3803;51.666;7.630;2023-07-16T01:49:26;100366.88;;;20.12;64.58
7524;BME280;3803;51.666;7.630;2023-07-16T01:49:48;100370.50;;;20.08;64.69
7524;BME280;3803;51.666;7.630;2023-07-16T01:50:08;100379.28;;;20.10;64.67
7524;BME280;3803;51.666;7.630;2023-07-16T01:50:29;100366.03;;;20.09;65.05
7524;BME280;3803;51.666;7.630;2023-07-16T01:50:50;100372.31;;;20.05;64.79
7524;BME280;3803;51.666;7.630;2023-07-16T01:51:11;100371.50;;;20.01;64.91
7524;BME280;3803;51.666;7.630;2023-07-16T01:51:34;100375.88;;;20.04;64.89
7524;BME280;3803;51.666;7.630;2023-07-16T01:51:55;100380.25;;;20.06;64.89
7524;BME280;3803;51.666;7.630;2023-07-16T01:52:15;100378.50;;;20.05;65.22
7524;BME280;3803;51.666;7.630;2023-07-16T01:52:36;100384.72;;;20.03;64.99
7524;BME280;3803;51.666;7.630;2023-07-16T01:52:57;100378.63;;;19.97;64.86
7524;BME280;3803;51.666;7.630;2023-07-16T01:53:19;100383.84;;;20.00;64.97
7524;BME280;3803;51.666;7.630;2023-07-16T01:53:41;100376.88;;;19.96;65.08
7524;BME280;3803;51.666;7.630;2023-07-16T01:54:01;100376.84;;;19.98;65.06
7524;BME280;3803;51.666;7.630;2023-07-16T01:54:25;100378.63;;;19.97;65.02
7524;BME280;3803;51.666;7.630;2023-07-16T01:54:45;100375.06;;;19.98;65.13
7524;BME280;3803;51.666;7.630;2023-07-16T01:55:06;100389.97;;;20.04;65.16
7524;BME280;3803;51.666;7.630;2023-07-16T01:55:27;100386.50;;;20.00;65.05
7524;BME280;3803;51.666;7.630;2023-07-16T01:55:49;100392.69;;;19.99;65.03
7524;BME280;3803;51.666;7.630;2023-07-16T01:56:09;100381.25;;;19.97;65.18
7524;BME280;3803;51.666;7.630;2023-07-16T01:56:30;100390.03;;;19.99;65.05
7524;BME280;3803;51.666;7.630;2023-07-16T01:56:52;100378.63;;;19.96;65.23
7524;BME280;3803;51.666;7.630;2023-07-16T01:57:13;100386.53;;;19.99;65.13
7524;BME280;3803;51.666;7.630;2023-07-16T01:57:33;100388.38;;;19.94;65.32
7524;BME280;3803;51.666;7.630;2023-07-16T01:57:54;100388.38;;;19.95;65.13
7524;BME280;3803;51.666;7.630;2023-07-16T01:58:15;100373.50;;;19.88;65.33
7524;BME280;3803;51.666;7.630;2023-07-16T01:58:36;100383.09;;;19.92;65.48
7524;BME280;3803;51.666;7.630;2023-07-16T01:58:56;100385.03;;;19.81;65.46
7524;BME280;3803;51.666;7.630;2023-07-16T01:59:17;100387.69;;;19.81;65.81
7524;BME280;3803;51.666;7.630;2023-07-16T01:59:38;100378.91;;;19.79;65.87
7524;BME280;3803;51.666;7.630;2023-07-16T01:59:58;100369.22;;;19.78;65.71
7524;BME280;3803;51.666;7.630;2023-07-16T02:00:19;100377.94;;;19.83;65.73
7524;BME280;3803;51.666;7.630;2023-07-16T02:00:40;100390.22;;;19.90;65.57
7524;BME280;3803;51.666;7.630;2023-07-16T02:01:01;100378.09;;;19.75;65.66
7524;BME280;3803;51.666;7.630;2023-07-16T02:01:21;100379.06;;;19.69;65.86
7524;BME280;3803;51.666;7.630;2023-07-16T02:01:42;100386.06;;;19.72;66.05
7524;BME280;3803;51.666;7.630;2023-07-16T02:02:03;100373.78;;;19.69;65.87